Ana Sayfa
METAR-TAF:

METAR-TAF

Havaalanları :

Butler, Pensilvanya, Amerika Birleşik Devletleri

Enlem: 40-47N, Boylam: 079-57W, yükseklik: 380 m

Güncel hava durumu gözlemi

Rapor saat 09:13 UTC de 37 dakika önce yapıldı.
Sakin rüzgar
Sıcaklık 21°C
Nem 100%
Basınç 1012 hPa
Görüş mesafesi: 16.1 km
600 ft yükseklikte az bulutlu
3600 ft yükseklikte parçalı çok bulutlu
11000 ft yükseklikte çok bulutlu
hafif yağmur

METAR: KBTP 220913Z AUTO 00000KT 10SM -RA FEW006 BKN036 OVC110 21/21 A2988 RMK AO2 LTG DSNT NE AND E TSE13 PNO $

Saat: 05:50 (09:50 UTC)


TAF: eksik

4.000'den fazla havaalanı için hava durumu gözlemleri ve tahminleri (METAR ve TAF raporları).

Kullanılabilir istasyonlar harita üzerinde sarı ve kırmızı noktalarla gösterilir.

İstasyonun adını görmek için fareyi noktanın üzerinde gezdirin.

Sonrasında hava gözlem ve tahminlerini görmek için tıklayın.

Haritayı değiştirmek için: yaklaştırmak için siyah artı işaretli yeşil düğmeye ve uzaklaştırmak için de eksi işaretli düğmeye hızla tıklayın; bitişik haritalar için yeşil okları kullanın.


METAR-TAF: